Time;durP1;ratioP1;P1;durP2;ratioP2;P2;SDS_P1;SDS_P2;PMS_P1;PMS_P2;Temp;Humidity;BMP_temperature;BMP_pressure;BME280_temperature;BME280_humidity;BME280_pressure;Samples;Min_cycle;Max_cycle;Signal;HPM_P1;HPM_P2
2022/11/02 00:01:42;;;;;;;1.35;0.75;;;;;;;;;;5072295;28;20056;-76
2022/11/02 00:04:09;;;;;;;1.05;0.50;;;;;;;;;;5068043;28;20479;-76
2022/11/02 00:06:35;;;;;;;0.15;0.05;;;;;;;;;;5069986;28;20020;-78
2022/11/02 00:09:02;;;;;;;0.30;0.30;;;;;;;;;;5070597;28;20020;-78
2022/11/02 00:11:28;;;;;;;0.00;0.00;;;;;;;;;;5075188;28;20025;-78
2022/11/02 00:13:54;;;;;;;0.00;0.00;;;;;;;;;;5079926;28;20021;-78
2022/11/02 00:16:22;;;;;;;0.00;0.00;;;;;;;;;;5078692;28;20063;-78
2022/11/02 00:18:51;;;;;;;0.00;0.00;;;;;;;;;;5074382;28;20032;-78
2022/11/02 00:21:18;;;;;;;0.00;0.00;;;;;;;;;;5075950;28;20025;-77
2022/11/02 00:23:45;;;;;;;0.00;0.00;;;;;;;;;;5076371;28;20033;-78
2022/11/02 00:26:12;;;;;;;0.00;0.00;;;;;;;;;;5078231;28;20039;-78
2022/11/02 00:28:38;;;;;;;0.00;0.00;;;;;;;;;;5099611;28;20032;-78
2022/11/02 00:31:04;;;;;;;2.13;0.45;;;;;;;;;;5093933;28;20097;-78
2022/11/02 00:33:31;;;;;;;3.95;0.30;;;;;;;;;;5083397;28;20029;-77
2022/11/02 00:35:57;;;;;;;1.88;1.50;;;;;;;;;;5080507;28;20095;-78
2022/11/02 00:38:24;;;;;;;1.05;0.82;;;;;;;;;;5077876;28;20064;-76
2022/11/02 00:40:50;;;;;;;1.02;0.47;;;;;;;;;;5076833;28;20031;-76
2022/11/02 00:43:16;;;;;;;0.55;0.20;;;;;;;;;;5074706;28;20013;-77
2022/11/02 00:45:43;;;;;;;0.17;0.00;;;;;;;;;;5075111;28;20086;-78
2022/11/02 00:48:09;;;;;;;0.00;0.00;;;;;;;;;;5075429;28;20634;-78
2022/11/02 00:50:35;;;;;;;0.00;0.00;;;;;;;;;;5075198;28;20490;-78
2022/11/02 00:53:02;;;;;;;0.65;0.30;;;;;;;;;;5077615;28;20017;-78
2022/11/02 00:55:28;;;;;;;0.30;0.30;;;;;;;;;;5080535;28;20040;-79
2022/11/02 00:57:54;;;;;;;0.38;0.10;;;;;;;;;;5102074;28;20059;-79
2022/11/02 01:00:21;;;;;;;0.00;0.00;;;;;;;;;;5097099;28;20102;-78
2022/11/02 01:02:47;;;;;;;0.00;0.00;;;;;;;;;;5077058;28;20047;-79
2022/11/02 01:05:13;;;;;;;0.00;0.00;;;;;;;;;;5095938;28;20525;-78
2022/11/02 01:07:40;;;;;;;0.00;0.00;;;;;;;;;;5078531;28;20078;-78
2022/11/02 01:10:07;;;;;;;0.52;0.52;;;;;;;;;;5096937;28;20058;-78
2022/11/02 01:12:36;;;;;;;0.00;0.00;;;;;;;;;;5079042;28;20024;-78
2022/11/02 01:15:02;;;;;;;0.00;0.00;;;;;;;;;;5078506;28;20020;-79
2022/11/02 01:17:28;;;;;;;0.00;0.00;;;;;;;;;;5096416;28;20426;-78
2022/11/02 01:20:00;;;;;;;0.00;0.00;;;;;;;;;;5095034;28;20016;-78
2022/11/02 01:22:27;;;;;;;1.88;1.88;;;;;;;;;;5094169;28;20008;-75
2022/11/02 01:24:54;;;;;;;0.22;0.22;;;;;;;;;;5096205;28;20028;-75
2022/11/02 01:27:20;;;;;;;0.00;0.00;;;;;;;;;;5087754;28;20506;-75
2022/11/02 01:29:47;;;;;;;0.00;0.00;;;;;;;;;;5084467;28;20093;-75
2022/11/02 01:32:13;;;;;;;0.00;0.00;;;;;;;;;;5093990;28;20359;-74
2022/11/02 01:34:39;;;;;;;0.00;0.00;;;;;;;;;;5094911;28;20386;-74
2022/11/02 01:37:06;;;;;;;0.00;0.00;;;;;;;;;;5094452;28;20097;-74
2022/11/02 01:39:32;;;;;;;0.00;0.00;;;;;;;;;;5095155;28;20095;-75
2022/11/02 01:41:58;;;;;;;0.00;0.00;;;;;;;;;;5094892;28;20356;-74
2022/11/02 01:44:30;;;;;;;0.00;0.00;;;;;;;;;;5095038;28;20016;-75
2022/11/02 01:47:02;;;;;;;0.00;0.00;;;;;;;;;;5096748;28;20039;-74
2022/11/02 01:49:31;;;;;;;0.00;0.00;;;;;;;;;;5082676;28;20367;-75
2022/11/02 01:51:57;;;;;;;0.10;0.10;;;;;;;;;;5114920;28;20032;-74
2022/11/02 01:54:26;;;;;;;0.00;0.00;;;;;;;;;;5088612;28;20079;-74
2022/11/02 01:56:56;;;;;;;0.00;0.00;;;;;;;;;;5070308;28;20055;-75
2022/11/02 01:59:31;;;;;;;1.08;1.08;;;;;;;;;;5052389;28;20501;-74
2022/11/02 02:01:58;;;;;;;0.88;0.88;;;;;;;;;;5071842;28;20025;-74
2022/11/02 02:04:25;;;;;;;0.00;0.00;;;;;;;;;;5073919;28;20105;-76
2022/11/02 02:06:52;;;;;;;0.00;0.00;;;;;;;;;;5074854;28;20024;-74
2022/11/02 02:09:19;;;;;;;0.20;0.20;;;;;;;;;;5055674;28;20054;-74
2022/11/02 02:11:45;;;;;;;0.00;0.00;;;;;;;;;;5071907;28;20040;-74
2022/11/02 02:14:16;;;;;;;0.38;0.38;;;;;;;;;;5073918;28;20394;-73
2022/11/02 02:17:00;;;;;;;2.22;2.13;;;;;;;;;;5071109;28;20507;-74
2022/11/02 02:19:33;;;;;;;0.00;0.00;;;;;;;;;;5070421;28;20039;-78
2022/11/02 02:22:19;;;;;;;0.00;0.00;;;;;;;;;;5072055;28;20017;-78
2022/11/02 02:24:51;;;;;;;0.00;0.00;;;;;;;;;;5070965;28;20028;-77
2022/11/02 02:27:21;;;;;;;0.00;0.00;;;;;;;;;;5076100;28;20029;-77
2022/11/02 02:29:52;;;;;;;0.00;0.00;;;;;;;;;;5093555;28;20016;-79
2022/11/02 02:32:27;;;;;;;0.00;0.00;;;;;;;;;;5076909;28;20086;-78
2022/11/02 02:34:57;;;;;;;0.00;0.00;;;;;;;;;;5056041;28;20020;-79
2022/11/02 02:37:44;;;;;;;0.00;0.00;;;;;;;;;;5072809;28;20077;-79
2022/11/02 02:40:18;;;;;;;0.08;0.08;;;;;;;;;;5060541;28;20086;-78
2022/11/02 02:42:52;;;;;;;0.20;0.20;;;;;;;;;;5060335;28;20039;-78
2022/11/02 02:45:23;;;;;;;0.00;0.00;;;;;;;;;;5068726;28;20040;-79
2022/11/02 02:47:52;;;;;;;0.00;0.00;;;;;;;;;;5084713;28;20032;-79
2022/11/02 02:50:21;;;;;;;0.10;0.10;;;;;;;;;;5069825;28;20506;-79
2022/11/02 02:52:49;;;;;;;0.00;0.00;;;;;;;;;;5070729;28;20025;-79
2022/11/02 02:55:18;;;;;;;0.17;0.17;;;;;;;;;;5087517;28;20163;-81
2022/11/02 02:57:45;;;;;;;2.55;1.77;;;;;;;;;;5078661;28;20039;-78
2022/11/02 03:00:13;;;;;;;0.75;0.75;;;;;;;;;;5094252;28;20016;-78
2022/11/02 03:02:39;;;;;;;0.00;0.00;;;;;;;;;;5102902;28;20058;-79
2022/11/02 03:05:25;;;;;;;0.00;0.00;;;;;;;;;;5096058;28;20103;-79
2022/11/02 03:07:52;;;;;;;0.00;0.00;;;;;;;;;;5095180;28;20100;-81
2022/11/02 03:10:31;;;;;;;2.88;2.72;;;;;;;;;;5092498;28;20024;-81
2022/11/02 03:13:10;;;;;;;0.00;0.00;;;;;;;;;;5072265;28;20506;-81
2022/11/02 03:15:45;;;;;;;0.52;0.52;;;;;;;;;;5093195;28;20073;-80
2022/11/02 03:18:20;;;;;;;1.08;1.08;;;;;;;;;;5106891;28;20039;-82
2022/11/02 03:20:54;;;;;;;0.00;0.00;;;;;;;;;;5070133;28;20028;-82
2022/11/02 03:23:33;;;;;;;3.28;2.97;;;;;;;;;;5087796;28;20027;-79
2022/11/02 03:26:02;;;;;;;0.00;0.00;;;;;;;;;;5085426;28;20020;-81
2022/11/02 03:28:44;;;;;;;0.00;0.00;;;;;;;;;;5088137;28;20030;-81
2022/11/02 03:31:19;;;;;;;0.35;0.35;;;;;;;;;;5090591;28;20028;-78
2022/11/02 03:33:57;;;;;;;0.28;0.28;;;;;;;;;;5087511;28;20024;-80
2022/11/02 03:36:31;;;;;;;1.67;1.65;;;;;;;;;;5073133;28;20043;-82
2022/11/02 03:39:01;;;;;;;0.00;0.00;;;;;;;;;;5091734;28;20084;-80
2022/11/02 03:41:28;;;;;;;0.00;0.00;;;;;;;;;;5087420;28;20496;-78
2022/11/02 03:44:03;;;;;;;0.10;0.10;;;;;;;;;;5093714;28;20034;-79
2022/11/02 03:46:32;;;;;;;0.32;0.32;;;;;;;;;;5093605;28;20055;-80
2022/11/02 03:49:00;;;;;;;0.00;0.00;;;;;;;;;;5130377;28;20048;-79
2022/11/02 03:51:26;;;;;;;0.00;0.00;;;;;;;;;;5111991;28;20068;-80
2022/11/02 03:53:53;;;;;;;0.00;0.00;;;;;;;;;;5076710;28;20032;-79
2022/11/02 03:56:45;;;;;;;0.28;0.28;;;;;;;;;;5097557;28;20017;-79
2022/11/02 03:59:12;;;;;;;0.00;0.00;;;;;;;;;;5104016;28;20458;-80
2022/11/02 04:01:43;;;;;;;0.28;0.28;;;;;;;;;;5099241;28;20076;-79
2022/11/02 04:04:10;;;;;;;0.35;0.35;;;;;;;;;;5097077;28;20494;-80
2022/11/02 04:06:37;;;;;;;0.00;0.00;;;;;;;;;;5094457;28;20394;-80
2022/11/02 04:09:03;;;;;;;0.00;0.00;;;;;;;;;;5092893;28;20043;-79
2022/11/02 04:19:45;;;;;;;0.00;0.00;;;;;;;;;;5093157;28;20078;-81
2022/11/02 04:25:17;;;;;;;0.00;0.00;;;;;;;;;;5097336;28;20504;-80
2022/11/02 04:27:44;;;;;;;0.38;0.20;;;;;;;;;;5111301;28;20297;-79
2022/11/02 04:30:10;;;;;;;0.25;0.25;;;;;;;;;;5090611;28;20482;-79
2022/11/02 04:35:26;;;;;;;1.08;1.08;;;;;;;;;;5094128;28;20535;-81
2022/11/02 04:40:37;;;;;;;0.00;0.00;;;;;;;;;;5091405;28;20031;-80
2022/11/02 04:43:03;;;;;;;0.28;0.28;;;;;;;;;;5089107;28;20168;-77
2022/11/02 04:45:30;;;;;;;4.05;3.85;;;;;;;;;;5089696;28;20486;-78
2022/11/02 04:48:04;;;;;;;2.33;2.13;;;;;;;;;;5089137;28;20476;-80
2022/11/02 04:50:30;;;;;;;0.00;0.00;;;;;;;;;;5091977;28;20058;-80
2022/11/02 04:53:01;;;;;;;0.13;0.13;;;;;;;;;;5092655;28;20031;-79
2022/11/02 04:55:27;;;;;;;0.65;0.63;;;;;;;;;;5072896;28;20561;-79
2022/11/02 04:57:54;;;;;;;0.38;0.38;;;;;;;;;;5074412;28;20036;-77
2022/11/02 05:00:20;;;;;;;0.00;0.00;;;;;;;;;;5055147;28;20559;-79
2022/11/02 05:02:47;;;;;;;0.13;0.13;;;;;;;;;;5068482;28;20442;-79
2022/11/02 05:05:14;;;;;;;0.43;0.43;;;;;;;;;;5070757;28;20093;-79
2022/11/02 05:07:41;;;;;;;0.00;0.00;;;;;;;;;;5076787;28;20024;-78
2022/11/02 05:10:07;;;;;;;0.98;0.98;;;;;;;;;;5073140;28;20029;-78
2022/11/02 05:12:34;;;;;;;0.75;0.75;;;;;;;;;;5071949;28;20038;-78
2022/11/02 05:15:00;;;;;;;1.67;1.65;;;;;;;;;;5069556;28;20024;-80
2022/11/02 05:17:27;;;;;;;0.00;0.00;;;;;;;;;;5071243;28;20024;-79
2022/11/02 05:19:53;;;;;;;0.00;0.00;;;;;;;;;;5054492;28;20394;-80
2022/11/02 05:22:20;;;;;;;1.45;1.35;;;;;;;;;;5071614;28;20368;-78
2022/11/02 05:24:46;;;;;;;0.00;0.00;;;;;;;;;;5066236;28;20029;-81
2022/11/02 05:27:13;;;;;;;3.50;3.30;;;;;;;;;;5075004;28;20040;-82
2022/11/02 05:29:39;;;;;;;0.00;0.00;;;;;;;;;;5065350;28;20481;-81
2022/11/02 05:32:06;;;;;;;0.10;0.10;;;;;;;;;;5093182;28;20070;-79
2022/11/02 05:34:32;;;;;;;0.00;0.00;;;;;;;;;;5084435;28;20455;-80
2022/11/02 05:36:58;;;;;;;0.35;0.35;;;;;;;;;;5073744;28;20039;-81
2022/11/02 05:39:25;;;;;;;7.40;6.97;;;;;;;;;;5051912;28;20390;-82
2022/11/02 05:41:51;;;;;;;0.00;0.00;;;;;;;;;;5055568;28;20044;-81
2022/11/02 05:44:17;;;;;;;0.08;0.08;;;;;;;;;;5072398;28;20024;-81
2022/11/02 05:46:44;;;;;;;0.10;0.10;;;;;;;;;;5069533;28;20425;-81
2022/11/02 05:49:10;;;;;;;1.98;0.75;;;;;;;;;;5054057;28;20020;-81
2022/11/02 05:51:36;;;;;;;1.27;1.10;;;;;;;;;;5077760;28;20066;-81
2022/11/02 05:54:07;;;;;;;0.05;0.05;;;;;;;;;;5067610;28;20033;-79
2022/11/02 05:56:34;;;;;;;0.10;0.10;;;;;;;;;;5084659;28;20021;-81
2022/11/02 05:59:00;;;;;;;1.52;1.45;;;;;;;;;;5077213;28;20495;-80
2022/11/02 06:01:26;;;;;;;0.00;0.00;;;;;;;;;;5067949;28;20102;-81
2022/11/02 06:03:53;;;;;;;0.20;0.20;;;;;;;;;;5071287;28;20044;-80
2022/11/02 06:06:19;;;;;;;2.55;2.45;;;;;;;;;;5068919;28;20466;-77
2022/11/02 06:08:45;;;;;;;0.00;0.00;;;;;;;;;;5070554;28;20036;-81
2022/11/02 06:11:12;;;;;;;1.17;1.10;;;;;;;;;;5072436;28;20034;-78
2022/11/02 06:13:39;;;;;;;0.00;0.00;;;;;;;;;;5071420;28;20529;-77
2022/11/02 06:16:08;;;;;;;0.00;0.00;;;;;;;;;;5071873;28;20052;-78
2022/11/02 06:18:35;;;;;;;0.60;0.52;;;;;;;;;;5070980;28;20111;-79
2022/11/02 06:21:01;;;;;;;0.00;0.00;;;;;;;;;;5066039;28;20075;-79
2022/11/02 06:23:28;;;;;;;1.45;1.35;;;;;;;;;;5071883;28;20037;-76
2022/11/02 06:25:56;;;;;;;0.00;0.00;;;;;;;;;;5069463;28;20391;-78
2022/11/02 06:28:22;;;;;;;0.10;0.10;;;;;;;;;;5070213;28;20024;-79
2022/11/02 06:30:49;;;;;;;1.15;1.10;;;;;;;;;;5065906;28;20064;-74
2022/11/02 06:33:16;;;;;;;0.00;0.00;;;;;;;;;;5066268;28;20098;-77
2022/11/02 06:35:46;;;;;;;0.00;0.00;;;;;;;;;;5065728;28;20047;-78
2022/11/02 06:38:13;;;;;;;0.00;0.00;;;;;;;;;;5068278;28;20027;-77
2022/11/02 06:40:39;;;;;;;5.13;4.85;;;;;;;;;;5067802;28;20047;-77
2022/11/02 06:43:06;;;;;;;0.00;0.00;;;;;;;;;;5061291;28;20579;-75
2022/11/02 06:45:32;;;;;;;0.00;0.00;;;;;;;;;;5065147;28;20077;-76
2022/11/02 06:47:58;;;;;;;0.00;0.00;;;;;;;;;;5068201;28;20040;-74
2022/11/02 06:50:28;;;;;;;0.60;0.60;;;;;;;;;;5065776;28;20039;-74
2022/11/02 06:52:55;;;;;;;0.10;0.10;;;;;;;;;;5067838;28;20044;-75
2022/11/02 06:55:21;;;;;;;0.30;0.20;;;;;;;;;;5087093;28;20040;-76
2022/11/02 06:57:47;;;;;;;4.05;3.80;;;;;;;;;;5088181;28;20073;-74
2022/11/02 07:00:18;;;;;;;2.28;2.20;;;;;;;;;;5089262;28;20028;-74
2022/11/02 07:02:44;;;;;;;1.45;1.05;;;;;;;;;;5085516;28;20024;-77
2022/11/02 07:05:11;;;;;;;0.10;0.10;;;;;;;;;;5086560;28;20035;-75
2022/11/02 07:07:37;;;;;;;0.00;0.00;;;;;;;;;;5084644;28;20423;-75
2022/11/02 07:10:04;;;;;;;0.20;0.20;;;;;;;;;;5067642;28;20024;-74
2022/11/02 07:12:32;;;;;;;0.00;0.00;;;;;;;;;;5081002;28;20649;-74
2022/11/02 07:14:59;;;;;;;0.00;0.00;;;;;;;;;;5072527;28;20108;-74
2022/11/02 07:17:25;;;;;;;0.00;0.00;;;;;;;;;;5086757;28;20048;-75
2022/11/02 07:19:51;;;;;;;0.00;0.00;;;;;;;;;;5078329;28;20059;-74
2022/11/02 07:22:18;;;;;;;2.05;1.95;;;;;;;;;;5075027;28;20027;-75
2022/11/02 07:24:44;;;;;;;0.10;0.10;;;;;;;;;;5083715;28;20060;-74
2022/11/02 07:27:11;;;;;;;0.63;0.63;;;;;;;;;;5088911;28;20028;-75
2022/11/02 07:29:37;;;;;;;2.13;1.92;;;;;;;;;;5068057;28;20031;-75
2022/11/02 07:32:05;;;;;;;1.35;1.13;;;;;;;;;;5081073;28;20028;-74
2022/11/02 07:34:31;;;;;;;0.35;0.35;;;;;;;;;;5077797;28;20039;-74
2022/11/02 07:36:58;;;;;;;1.00;1.00;;;;;;;;;;5084047;28;20067;-74
2022/11/02 07:39:27;;;;;;;0.52;0.20;;;;;;;;;;5087308;28;20454;-74
2022/11/02 07:41:54;;;;;;;2.80;2.10;;;;;;;;;;5090757;28;20548;-74
2022/11/02 07:44:20;;;;;;;1.27;1.25;;;;;;;;;;5092562;28;20024;-74
2022/11/02 07:46:46;;;;;;;2.92;2.83;;;;;;;;;;5073790;28;20073;-73
2022/11/02 07:49:13;;;;;;;0.85;0.85;;;;;;;;;;5077093;28;20027;-73
2022/11/02 07:51:39;;;;;;;2.25;1.30;;;;;;;;;;5092859;28;20054;-74
2022/11/02 07:54:05;;;;;;;0.00;0.00;;;;;;;;;;5087172;28;20040;-74
2022/11/02 07:56:32;;;;;;;0.00;0.00;;;;;;;;;;5055111;28;20040;-73
2022/11/02 07:58:58;;;;;;;0.00;0.00;;;;;;;;;;5067522;28;20060;-74
2022/11/02 08:01:24;;;;;;;0.30;0.30;;;;;;;;;;5088216;28;20016;-74
2022/11/02 08:03:51;;;;;;;0.32;0.20;;;;;;;;;;5076280;28;20124;-76
2022/11/02 08:06:18;;;;;;;0.40;0.40;;;;;;;;;;5079807;28;20111;-77
2022/11/02 08:08:44;;;;;;;0.50;0.50;;;;;;;;;;5068123;28;20056;-76
2022/11/02 08:11:10;;;;;;;0.03;0.03;;;;;;;;;;5087779;28;20022;-75
2022/11/02 08:13:37;;;;;;;0.00;0.00;;;;;;;;;;5081547;28;20086;-75
2022/11/02 08:16:03;;;;;;;0.25;0.25;;;;;;;;;;5079270;28;20044;-77
2022/11/02 08:18:31;;;;;;;0.22;0.22;;;;;;;;;;5070383;28;20107;-75
2022/11/02 08:20:58;;;;;;;6.32;2.08;;;;;;;;;;5075239;28;20079;-78
2022/11/02 08:23:25;;;;;;;0.22;0.22;;;;;;;;;;5076054;28;20024;-77
2022/11/02 08:25:52;;;;;;;1.17;0.85;;;;;;;;;;5079280;28;20016;-76
2022/11/02 08:28:20;;;;;;;4.07;2.58;;;;;;;;;;5059983;28;20482;-77
2022/11/02 08:30:47;;;;;;;1.95;1.85;;;;;;;;;;5075187;28;20036;-77
2022/11/02 08:33:15;;;;;;;4.28;2.75;;;;;;;;;;5058504;28;20190;-78
2022/11/02 08:35:43;;;;;;;7.10;2.80;;;;;;;;;;5075870;28;20467;-77
2022/11/02 08:38:09;;;;;;;0.52;0.52;;;;;;;;;;5070814;28;20546;-77
2022/11/02 08:40:36;;;;;;;1.38;0.73;;;;;;;;;;5070593;28;20043;-77
2022/11/02 08:43:04;;;;;;;0.25;0.25;;;;;;;;;;5077861;28;20084;-74
2022/11/02 08:45:31;;;;;;;1.38;1.35;;;;;;;;;;5057234;28;20483;-75
2022/11/02 08:47:58;;;;;;;6.95;2.83;;;;;;;;;;5058674;28;20028;-75
2022/11/02 08:50:25;;;;;;;2.17;2.08;;;;;;;;;;5073019;28;20493;-75
2022/11/02 08:52:52;;;;;;;4.03;3.83;;;;;;;;;;5054870;28;20032;-75
2022/11/02 08:55:18;;;;;;;0.80;0.47;;;;;;;;;;5070173;28;20190;-76
2022/11/02 08:57:45;;;;;;;4.72;1.08;;;;;;;;;;5074150;28;20033;-76
2022/11/02 09:00:12;;;;;;;23.20;1.77;;;;;;;;;;5076178;28;20013;-74
2022/11/02 09:02:38;;;;;;;0.00;0.00;;;;;;;;;;5071824;28;20138;-74
2022/11/02 09:05:05;;;;;;;9.85;1.90;;;;;;;;;;5055553;28;20079;-75
2022/11/02 09:07:31;;;;;;;0.35;0.35;;;;;;;;;;5058685;28;20032;-74
2022/11/02 09:09:57;;;;;;;0.47;0.47;;;;;;;;;;5072993;28;20029;-74
2022/11/02 09:12:24;;;;;;;0.90;0.82;;;;;;;;;;5079190;28;20086;-76
2022/11/02 09:14:50;;;;;;;1.98;1.83;;;;;;;;;;5073663;28;20101;-74
2022/11/02 09:17:16;;;;;;;0.60;0.60;;;;;;;;;;5072098;28;20043;-73
2022/11/02 09:19:43;;;;;;;0.00;0.00;;;;;;;;;;5072946;28;20033;-73
2022/11/02 09:22:09;;;;;;;0.55;0.55;;;;;;;;;;5073387;28;20025;-72
2022/11/02 09:24:36;;;;;;;0.22;0.22;;;;;;;;;;5071404;28;20028;-74
2022/11/02 09:27:03;;;;;;;1.50;1.40;;;;;;;;;;5071780;28;20020;-73
2022/11/02 09:29:29;;;;;;;2.63;1.35;;;;;;;;;;5088860;28;20485;-73
2022/11/02 09:31:55;;;;;;;3.35;1.15;;;;;;;;;;5078501;28;20560;-74
2022/11/02 09:34:21;;;;;;;0.90;0.47;;;;;;;;;;5071663;28;20031;-75
2022/11/02 09:36:48;;;;;;;4.50;4.30;;;;;;;;;;5073834;28;20033;-73
2022/11/02 09:39:16;;;;;;;0.63;0.57;;;;;;;;;;5074011;28;20386;-75
2022/11/02 09:41:45;;;;;;;0.20;0.20;;;;;;;;;;5073658;28;21621;-76
2022/11/02 09:44:28;;;;;;;4.70;4.50;;;;;;;;;;5087406;28;20039;-76
2022/11/02 09:46:55;;;;;;;1.58;1.48;;;;;;;;;;5071422;28;20032;-75
2022/11/02 09:49:27;;;;;;;1.05;1.05;;;;;;;;;;5077981;28;20438;-76
2022/11/02 09:51:58;;;;;;;0.55;0.55;;;;;;;;;;5067193;28;20429;-76
2022/11/02 09:54:30;;;;;;;0.40;0.40;;;;;;;;;;5076047;28;20127;-76
2022/11/02 09:57:00;;;;;;;2.70;2.20;;;;;;;;;;5086882;28;20478;-74
2022/11/02 09:59:26;;;;;;;0.40;0.40;;;;;;;;;;5092971;28;20096;-76
2022/11/02 10:02:05;;;;;;;0.85;0.80;;;;;;;;;;5086680;28;20039;-75
2022/11/02 10:04:53;;;;;;;1.88;1.77;;;;;;;;;;5086146;28;20024;-76
2022/11/02 10:07:38;;;;;;;3.65;2.92;;;;;;;;;;5101789;27;20028;-76
2022/11/02 10:10:08;;;;;;;0.52;0.52;;;;;;;;;;5082681;28;20028;-76
2022/11/02 10:13:01;;;;;;;0.47;0.38;;;;;;;;;;5072977;28;20078;-75
2022/11/02 10:15:27;;;;;;;0.10;0.10;;;;;;;;;;5080765;28;20036;-75
2022/11/02 10:17:55;;;;;;;3.88;2.00;;;;;;;;;;5085334;28;20055;-76
2022/11/02 10:20:31;;;;;;;0.63;0.63;;;;;;;;;;5084810;28;20023;-76
2022/11/02 10:23:07;;;;;;;0.60;0.60;;;;;;;;;;5081324;28;20135;-76
2022/11/02 10:25:35;;;;;;;5.80;5.38;;;;;;;;;;5085426;28;20028;-77
2022/11/02 10:28:14;;;;;;;0.47;0.45;;;;;;;;;;5085617;28;20024;-77
2022/11/02 10:30:41;;;;;;;3.63;2.33;;;;;;;;;;5083690;28;20496;-76
2022/11/02 10:33:13;;;;;;;0.00;0.00;;;;;;;;;;5091803;28;20028;-76
2022/11/02 10:35:39;;;;;;;1.58;1.48;;;;;;;;;;5090995;28;20020;-77
2022/11/02 10:38:29;;;;;;;0.10;0.10;;;;;;;;;;5072018;28;20033;-76
2022/11/02 10:41:11;;;;;;;1.65;1.00;;;;;;;;;;5081759;28;20052;-76
2022/11/02 10:43:43;;;;;;;2.83;0.55;;;;;;;;;;5079431;28;20016;-75
2022/11/02 10:46:09;;;;;;;1.38;1.27;;;;;;;;;;5083813;28;20035;-75
2022/11/02 10:48:42;;;;;;;2.50;0.68;;;;;;;;;;5099503;28;20390;-78
2022/11/02 10:51:09;;;;;;;0.10;0.10;;;;;;;;;;5110245;27;20031;-79
2022/11/02 10:53:38;;;;;;;0.05;0.05;;;;;;;;;;5087129;28;20048;-78
2022/11/02 10:56:16;;;;;;;0.57;0.57;;;;;;;;;;5058285;28;20032;-78
2022/11/02 10:59:03;;;;;;;0.10;0.10;;;;;;;;;;5054070;28;20016;-79
2022/11/02 11:01:30;;;;;;;0.28;0.28;;;;;;;;;;5059380;28;20036;-76
2022/11/02 11:03:58;;;;;;;0.00;0.00;;;;;;;;;;5086463;28;20028;-75
2022/11/02 11:06:27;;;;;;;0.75;0.75;;;;;;;;;;5061515;28;20056;-76
2022/11/02 11:08:58;;;;;;;1.55;1.45;;;;;;;;;;5066309;28;20093;-76
2022/11/02 11:11:35;;;;;;;0.10;0.10;;;;;;;;;;5055095;28;20036;-77
2022/11/02 11:14:16;;;;;;;1.48;1.38;;;;;;;;;;5048348;28;20496;-72
2022/11/02 11:16:44;;;;;;;0.00;0.00;;;;;;;;;;5062509;28;20032;-74
2022/11/02 11:19:21;;;;;;;6.72;6.03;;;;;;;;;;5061198;28;20449;-73
2022/11/02 11:21:51;;;;;;;0.38;0.38;;;;;;;;;;5061979;28;20059;-76
2022/11/02 11:24:20;;;;;;;0.00;0.00;;;;;;;;;;5067324;28;20078;-73
2022/11/02 11:26:59;;;;;;;0.15;0.15;;;;;;;;;;5052626;28;20032;-76
2022/11/02 11:29:29;;;;;;;0.00;0.00;;;;;;;;;;5069850;28;20017;-76
2022/11/02 11:31:55;;;;;;;0.00;0.00;;;;;;;;;;5068215;28;20016;-74
2022/11/02 11:34:30;;;;;;;0.28;0.28;;;;;;;;;;5070196;28;20024;-76
2022/11/02 11:37:16;;;;;;;0.20;0.20;;;;;;;;;;5065189;28;20120;-76
2022/11/02 11:39:45;;;;;;;1.75;1.13;;;;;;;;;;5072001;28;20021;-77
2022/11/02 11:42:16;;;;;;;0.30;0.30;;;;;;;;;;5066924;28;20082;-78
2022/11/02 11:44:56;;;;;;;0.85;0.60;;;;;;;;;;5087058;28;20474;-77
2022/11/02 11:47:30;;;;;;;2.63;0.65;;;;;;;;;;5072321;28;20028;-78
2022/11/02 11:49:57;;;;;;;0.00;0.00;;;;;;;;;;5050587;28;20025;-76
2022/11/02 11:52:26;;;;;;;0.00;0.00;;;;;;;;;;5068620;28;20029;-77
2022/11/02 11:55:00;;;;;;;2.85;2.72;;;;;;;;;;5071907;28;20056;-77
2022/11/02 11:57:34;;;;;;;0.00;0.00;;;;;;;;;;5055320;28;20403;-80
2022/11/02 12:00:03;;;;;;;0.00;0.00;;;;;;;;;;5058532;28;20028;-79
2022/11/02 12:02:34;;;;;;;1.45;0.93;;;;;;;;;;5056597;28;20050;-76
2022/11/02 12:05:11;;;;;;;0.00;0.00;;;;;;;;;;5070777;28;20446;-82
2022/11/02 12:07:51;;;;;;;0.00;0.00;;;;;;;;;;5067322;28;20385;-78
2022/11/02 12:10:17;;;;;;;0.00;0.00;;;;;;;;;;5067599;28;20024;-79
2022/11/02 12:12:47;;;;;;;0.00;0.00;;;;;;;;;;5077068;28;20037;-79
2022/11/02 12:15:52;;;;;;;1.88;1.23;;;;;;;;;;5073594;28;20028;-81
2022/11/02 12:18:18;;;;;;;0.00;0.00;;;;;;;;;;4966007;28;20023;-79
2022/11/02 12:20:44;;;;;;;2.90;0.75;;;;;;;;;;4963087;28;20546;-80
2022/11/02 12:23:16;;;;;;;0.05;0.05;;;;;;;;;;5017641;28;20041;-79
2022/11/02 12:25:52;;;;;;;3.63;3.42;;;;;;;;;;5051190;28;20025;-80
2022/11/02 12:28:42;;;;;;;0.55;0.55;;;;;;;;;;5055833;28;20149;-79
2022/11/02 12:31:21;;;;;;;0.00;0.00;;;;;;;;;;5069631;28;20033;-79
2022/11/02 12:33:56;;;;;;;0.15;0.15;;;;;;;;;;5056402;28;20087;-79
2022/11/02 12:36:35;;;;;;;0.35;0.35;;;;;;;;;;5055413;28;20025;-79
2022/11/02 12:39:07;;;;;;;0.10;0.10;;;;;;;;;;5071681;28;20098;-79
2022/11/02 12:41:36;;;;;;;1.35;1.35;;;;;;;;;;5065739;28;20031;-80
2022/11/02 12:44:20;;;;;;;0.10;0.10;;;;;;;;;;5050080;28;20035;-80
2022/11/02 12:46:57;;;;;;;0.00;0.00;;;;;;;;;;5075456;28;20021;-79
2022/11/02 12:49:24;;;;;;;0.00;0.00;;;;;;;;;;5073941;28;20081;-80
2022/11/02 12:51:51;;;;;;;1.67;1.27;;;;;;;;;;5066275;28;20106;-79
2022/11/02 12:54:21;;;;;;;0.00;0.00;;;;;;;;;;5060561;28;20047;-79
2022/11/02 12:56:49;;;;;;;4.85;2.47;;;;;;;;;;5074406;28;20025;-78
2022/11/02 12:59:24;;;;;;;1.20;1.20;;;;;;;;;;5075852;28;20474;-78
2022/11/02 13:01:54;;;;;;;0.45;0.45;;;;;;;;;;5075434;28;20382;-78
2022/11/02 13:04:24;;;;;;;5.25;1.92;;;;;;;;;;5073843;28;20726;-79
2022/11/02 13:06:52;;;;;;;1.27;1.27;;;;;;;;;;5070027;28;20398;-78
2022/11/02 13:09:18;;;;;;;16.20;5.95;;;;;;;;;;5073980;28;20429;-78
2022/11/02 13:11:51;;;;;;;0.20;0.20;;;;;;;;;;5104668;28;20379;-77
2022/11/02 13:14:20;;;;;;;0.25;0.25;;;;;;;;;;5075853;28;20037;-78
2022/11/02 13:17:02;;;;;;;6.55;3.88;;;;;;;;;;5072866;28;20032;-78
2022/11/02 13:19:54;;;;;;;0.10;0.10;;;;;;;;;;5073851;28;20028;-78
2022/11/02 13:22:25;;;;;;;0.05;0.05;;;;;;;;;;5051765;28;20033;-79
2022/11/02 13:24:55;;;;;;;0.00;0.00;;;;;;;;;;5061172;28;20542;-78
2022/11/02 13:27:36;;;;;;;0.00;0.00;;;;;;;;;;5081946;28;20016;-78
2022/11/02 13:30:04;;;;;;;0.00;0.00;;;;;;;;;;5091169;28;20051;-78
2022/11/02 13:32:34;;;;;;;0.77;0.77;;;;;;;;;;5084574;28;20028;-78
2022/11/02 13:35:04;;;;;;;0.00;0.00;;;;;;;;;;5073789;28;20051;-78
2022/11/02 13:37:35;;;;;;;0.00;0.00;;;;;;;;;;5068511;28;20063;-79
2022/11/02 13:40:05;;;;;;;0.90;0.43;;;;;;;;;;5072962;28;20056;-77
2022/11/02 13:42:31;;;;;;;0.55;0.55;;;;;;;;;;5075653;28;20115;-79
2022/11/02 13:45:16;;;;;;;0.98;0.98;;;;;;;;;;5074949;28;20029;-76
2022/11/02 13:47:45;;;;;;;0.20;0.20;;;;;;;;;;5073595;28;20535;-77
2022/11/02 13:50:15;;;;;;;0.52;0.52;;;;;;;;;;5074052;28;20034;-77
2022/11/02 13:52:43;;;;;;;0.52;0.52;;;;;;;;;;5076102;28;20029;-77
2022/11/02 13:55:15;;;;;;;0.40;0.40;;;;;;;;;;5069349;28;20040;-77
2022/11/02 13:57:46;;;;;;;2.65;2.45;;;;;;;;;;5067897;28;20033;-77
2022/11/02 14:00:22;;;;;;;0.00;0.00;;;;;;;;;;5072008;28;20017;-77
2022/11/02 14:02:49;;;;;;;0.00;0.00;;;;;;;;;;5074003;28;20422;-77
2022/11/02 14:05:29;;;;;;;0.43;0.30;;;;;;;;;;5054414;28;20055;-77
2022/11/02 14:08:00;;;;;;;0.05;0.05;;;;;;;;;;5061977;28;20081;-77
2022/11/02 14:10:27;;;;;;;3.97;3.30;;;;;;;;;;5070751;28;20048;-77
2022/11/02 14:12:54;;;;;;;1.00;1.00;;;;;;;;;;5070477;28;20031;-77
2022/11/02 14:15:20;;;;;;;0.52;0.52;;;;;;;;;;5067159;28;20025;-75
2022/11/02 14:17:52;;;;;;;0.00;0.00;;;;;;;;;;5071958;28;20059;-77
2022/11/02 14:20:36;;;;;;;0.00;0.00;;;;;;;;;;5057628;28;20043;-77
2022/11/02 14:23:13;;;;;;;0.75;0.63;;;;;;;;;;5064296;28;20503;-78
2022/11/02 14:25:45;;;;;;;1.85;1.80;;;;;;;;;;5064734;28;20028;-78
2022/11/02 14:28:18;;;;;;;1.65;1.65;;;;;;;;;;5068517;28;20031;-77
2022/11/02 14:30:44;;;;;;;0.00;0.00;;;;;;;;;;5070182;28;20055;-78
2022/11/02 14:33:16;;;;;;;1.63;0.80;;;;;;;;;;5065303;28;20024;-77
2022/11/02 14:35:49;;;;;;;3.90;3.60;;;;;;;;;;5069125;28;20332;-77
2022/11/02 14:38:26;;;;;;;0.10;0.10;;;;;;;;;;5072482;28;20056;-77
2022/11/02 14:40:56;;;;;;;0.05;0.05;;;;;;;;;;5072247;28;20099;-78
2022/11/02 14:43:31;;;;;;;0.00;0.00;;;;;;;;;;5069825;28;20086;-77
2022/11/02 14:46:12;;;;;;;6.70;2.50;;;;;;;;;;5073619;28;20086;-78
2022/11/02 14:49:04;;;;;;;0.00;0.00;;;;;;;;;;5063104;28;20024;-78
2022/11/02 14:51:32;;;;;;;3.95;3.75;;;;;;;;;;5054175;28;20031;-78
2022/11/02 14:54:04;;;;;;;0.00;0.00;;;;;;;;;;5079122;28;20470;-78
2022/11/02 14:57:08;;;;;;;0.80;0.80;;;;;;;;;;5062996;28;20029;-79
2022/11/02 14:59:37;;;;;;;0.00;0.00;;;;;;;;;;4987439;28;20125;-76
2022/11/02 15:02:15;;;;;;;0.90;0.85;;;;;;;;;;4985700;28;20030;-77
2022/11/02 15:04:50;;;;;;;3.65;3.55;;;;;;;;;;5025305;28;20036;-77
2022/11/02 15:07:21;;;;;;;1.25;1.15;;;;;;;;;;5053591;28;20119;-78
2022/11/02 15:09:52;;;;;;;1.88;1.15;;;;;;;;;;5055104;28;20398;-78
2022/11/02 15:12:39;;;;;;;3.95;3.67;;;;;;;;;;5052292;28;20182;-78
2022/11/02 15:15:06;;;;;;;0.10;0.10;;;;;;;;;;5086839;28;20474;-76
2022/11/02 15:17:32;;;;;;;1.50;1.40;;;;;;;;;;5086628;28;20707;-76